sensor_id;sensor_type;location;lat;lon;timestamp;temperature;humidity
8662;DHT22;29684;47.722;9.388;2022-09-16T00:01:37;14.80;99.90
8662;DHT22;29684;47.722;9.388;2022-09-16T00:04:21;14.90;99.90
8662;DHT22;29684;47.722;9.388;2022-09-16T00:07:05;14.90;99.90
8662;DHT22;29684;47.722;9.388;2022-09-16T00:09:49;14.90;99.90
8662;DHT22;29684;47.722;9.388;2022-09-16T00:12:34;15.00;99.90
8662;DHT22;29684;47.722;9.388;2022-09-16T00:15:19;15.10;99.90
8662;DHT22;29684;47.722;9.388;2022-09-16T00:18:03;15.10;99.90
8662;DHT22;29684;47.722;9.388;2022-09-16T00:20:50;15.00;99.90
8662;DHT22;29684;47.722;9.388;2022-09-16T00:23:36;15.00;99.90
8662;DHT22;29684;47.722;9.388;2022-09-16T00:26:20;14.90;99.90
8662;DHT22;29684;47.722;9.388;2022-09-16T00:29:05;14.80;99.90
8662;DHT22;29684;47.722;9.388;2022-09-16T00:31:49;14.80;99.90
8662;DHT22;29684;47.722;9.388;2022-09-16T00:34:34;14.70;99.90
8662;DHT22;29684;47.722;9.388;2022-09-16T00:37:18;14.70;99.90
8662;DHT22;29684;47.722;9.388;2022-09-16T00:40:03;14.80;99.90
8662;DHT22;29684;47.722;9.388;2022-09-16T00:42:48;14.90;99.90
8662;DHT22;29684;47.722;9.388;2022-09-16T00:45:32;14.80;99.90
8662;DHT22;29684;47.722;9.388;2022-09-16T00:48:20;14.70;99.90
8662;DHT22;29684;47.722;9.388;2022-09-16T00:51:08;14.60;99.90
8662;DHT22;29684;47.722;9.388;2022-09-16T00:53:57;14.70;99.90
8662;DHT22;29684;47.722;9.388;2022-09-16T00:56:47;14.50;99.90
8662;DHT22;29684;47.722;9.388;2022-09-16T00:59:34;14.80;99.90
8662;DHT22;29684;47.722;9.388;2022-09-16T01:02:21;15.00;99.90
8662;DHT22;29684;47.722;9.388;2022-09-16T01:05:12;15.00;99.90
8662;DHT22;29684;47.722;9.388;2022-09-16T01:07:57;14.80;99.90
8662;DHT22;29684;47.722;9.388;2022-09-16T01:10:41;14.80;99.90
8662;DHT22;29684;47.722;9.388;2022-09-16T01:13:26;14.80;99.90
8662;DHT22;29684;47.722;9.388;2022-09-16T01:16:13;14.70;99.90
8662;DHT22;29684;47.722;9.388;2022-09-16T01:19:23;14.70;99.90
8662;DHT22;29684;47.722;9.388;2022-09-16T01:37:02;14.30;99.90
8662;DHT22;29684;47.722;9.388;2022-09-16T01:43:17;14.30;99.90
8662;DHT22;29684;47.722;9.388;2022-09-16T01:58:38;14.30;99.90
8662;DHT22;29684;47.722;9.388;2022-09-16T02:01:30;14.30;99.90
8662;DHT22;29684;47.722;9.388;2022-09-16T02:04:22;14.50;99.90
8662;DHT22;29684;47.722;9.388;2022-09-16T02:07:10;14.50;99.90
8662;DHT22;29684;47.722;9.388;2022-09-16T02:10:04;14.50;99.90
8662;DHT22;29684;47.722;9.388;2022-09-16T02:12:54;14.40;99.90
8662;DHT22;29684;47.722;9.388;2022-09-16T02:15:42;14.50;99.90
8662;DHT22;29684;47.722;9.388;2022-09-16T02:18:30;14.40;99.90
8662;DHT22;29684;47.722;9.388;2022-09-16T02:21:16;14.40;99.90
8662;DHT22;29684;47.722;9.388;2022-09-16T02:24:06;14.40;99.90
8662;DHT22;29684;47.722;9.388;2022-09-16T02:26:55;14.30;99.90
8662;DHT22;29684;47.722;9.388;2022-09-16T02:29:44;14.30;99.90
8662;DHT22;29684;47.722;9.388;2022-09-16T02:32:31;14.30;99.90
8662;DHT22;29684;47.722;9.388;2022-09-16T02:35:19;14.30;99.90
8662;DHT22;29684;47.722;9.388;2022-09-16T02:38:14;14.30;99.90
8662;DHT22;29684;47.722;9.388;2022-09-16T02:40:59;14.30;99.90
8662;DHT22;29684;47.722;9.388;2022-09-16T02:43:45;14.30;99.90
8662;DHT22;29684;47.722;9.388;2022-09-16T02:46:40;14.20;99.90
8662;DHT22;29684;47.722;9.388;2022-09-16T02:52:43;14.20;99.90
8662;DHT22;29684;47.722;9.388;2022-09-16T02:58:13;14.10;99.90
8662;DHT22;29684;47.722;9.388;2022-09-16T03:00:57;14.10;99.90
8662;DHT22;29684;47.722;9.388;2022-09-16T03:03:42;14.30;99.90
8662;DHT22;29684;47.722;9.388;2022-09-16T03:06:27;14.50;99.90
8662;DHT22;29684;47.722;9.388;2022-09-16T03:09:14;14.40;99.90
8662;DHT22;29684;47.722;9.388;2022-09-16T03:27:33;14.20;99.90
8662;DHT22;29684;47.722;9.388;2022-09-16T03:30:19;14.40;99.90
8662;DHT22;29684;47.722;9.388;2022-09-16T03:33:09;14.70;99.90
8662;DHT22;29684;47.722;9.388;2022-09-16T03:35:58;14.60;99.90
8662;DHT22;29684;47.722;9.388;2022-09-16T03:38:43;14.50;99.90
8662;DHT22;29684;47.722;9.388;2022-09-16T03:41:30;14.50;99.90
8662;DHT22;29684;47.722;9.388;2022-09-16T03:44:16;14.50;99.90
8662;DHT22;29684;47.722;9.388;2022-09-16T03:47:01;14.50;99.90
8662;DHT22;29684;47.722;9.388;2022-09-16T03:49:46;14.40;99.90
8662;DHT22;29684;47.722;9.388;2022-09-16T03:52:30;14.50;99.90
8662;DHT22;29684;47.722;9.388;2022-09-16T03:55:14;14.40;99.90
8662;DHT22;29684;47.722;9.388;2022-09-16T03:58:00;14.50;99.90
8662;DHT22;29684;47.722;9.388;2022-09-16T04:00:48;14.50;99.90
8662;DHT22;29684;47.722;9.388;2022-09-16T04:03:34;14.40;99.90
8662;DHT22;29684;47.722;9.388;2022-09-16T04:06:20;14.40;99.90
8662;DHT22;29684;47.722;9.388;2022-09-16T04:09:05;14.40;99.90
8662;DHT22;29684;47.722;9.388;2022-09-16T04:11:51;14.50;99.90
8662;DHT22;29684;47.722;9.388;2022-09-16T04:14:35;14.40;99.90
8662;DHT22;29684;47.722;9.388;2022-09-16T04:17:20;14.40;99.90
8662;DHT22;29684;47.722;9.388;2022-09-16T04:20:04;14.20;99.90
8662;DHT22;29684;47.722;9.388;2022-09-16T04:22:50;14.20;99.90
8662;DHT22;29684;47.722;9.388;2022-09-16T04:25:34;14.20;99.90
8662;DHT22;29684;47.722;9.388;2022-09-16T04:28:19;14.20;99.90
8662;DHT22;29684;47.722;9.388;2022-09-16T04:31:05;14.20;99.90
8662;DHT22;29684;47.722;9.388;2022-09-16T04:33:50;14.20;99.90
8662;DHT22;29684;47.722;9.388;2022-09-16T04:36:34;14.20;99.90
8662;DHT22;29684;47.722;9.388;2022-09-16T04:39:18;14.20;99.90
8662;DHT22;29684;47.722;9.388;2022-09-16T04:42:02;14.30;99.90
8662;DHT22;29684;47.722;9.388;2022-09-16T04:44:48;14.40;99.90
8662;DHT22;29684;47.722;9.388;2022-09-16T04:47:32;14.40;99.90
8662;DHT22;29684;47.722;9.388;2022-09-16T04:50:16;14.40;99.90
8662;DHT22;29684;47.722;9.388;2022-09-16T04:53:01;14.60;99.90
8662;DHT22;29684;47.722;9.388;2022-09-16T04:55:45;14.60;99.90
8662;DHT22;29684;47.722;9.388;2022-09-16T04:58:30;14.50;99.90
8662;DHT22;29684;47.722;9.388;2022-09-16T05:01:17;14.40;99.90
8662;DHT22;29684;47.722;9.388;2022-09-16T05:04:04;14.40;99.90
8662;DHT22;29684;47.722;9.388;2022-09-16T05:06:48;14.30;99.90
8662;DHT22;29684;47.722;9.388;2022-09-16T05:09:32;14.30;99.90
8662;DHT22;29684;47.722;9.388;2022-09-16T05:12:17;14.60;99.90
8662;DHT22;29684;47.722;9.388;2022-09-16T05:15:01;14.60;99.90
8662;DHT22;29684;47.722;9.388;2022-09-16T05:17:45;14.50;99.90
8662;DHT22;29684;47.722;9.388;2022-09-16T05:20:29;14.40;99.90
8662;DHT22;29684;47.722;9.388;2022-09-16T05:23:14;14.40;99.90
8662;DHT22;29684;47.722;9.388;2022-09-16T05:26:04;14.50;99.90
8662;DHT22;29684;47.722;9.388;2022-09-16T05:28:49;14.50;99.90
8662;DHT22;29684;47.722;9.388;2022-09-16T05:31:38;14.40;99.90
8662;DHT22;29684;47.722;9.388;2022-09-16T05:34:23;14.60;99.90
8662;DHT22;29684;47.722;9.388;2022-09-16T05:37:11;14.60;99.90
8662;DHT22;29684;47.722;9.388;2022-09-16T05:39:55;14.70;99.90
8662;DHT22;29684;47.722;9.388;2022-09-16T05:42:39;14.70;99.90
8662;DHT22;29684;47.722;9.388;2022-09-16T05:45:23;14.90;99.90
8662;DHT22;29684;47.722;9.388;2022-09-16T05:48:07;14.60;99.90
8662;DHT22;29684;47.722;9.388;2022-09-16T05:51:08;14.60;99.90
8662;DHT22;29684;47.722;9.388;2022-09-16T05:53:54;14.50;99.90
8662;DHT22;29684;47.722;9.388;2022-09-16T05:56:38;14.50;99.90
8662;DHT22;29684;47.722;9.388;2022-09-16T05:59:22;14.50;99.90
8662;DHT22;29684;47.722;9.388;2022-09-16T06:02:07;14.60;99.90
8662;DHT22;29684;47.722;9.388;2022-09-16T06:04:53;14.70;99.90
8662;DHT22;29684;47.722;9.388;2022-09-16T06:07:37;14.70;99.90
8662;DHT22;29684;47.722;9.388;2022-09-16T06:10:21;14.80;99.90
8662;DHT22;29684;47.722;9.388;2022-09-16T06:13:05;15.00;99.90
8662;DHT22;29684;47.722;9.388;2022-09-16T06:15:50;15.00;99.90
8662;DHT22;29684;47.722;9.388;2022-09-16T06:18:37;14.90;99.90
8662;DHT22;29684;47.722;9.388;2022-09-16T06:21:22;14.80;99.90
8662;DHT22;29684;47.722;9.388;2022-09-16T06:24:06;14.80;99.90
8662;DHT22;29684;47.722;9.388;2022-09-16T06:26:51;14.80;99.90
8662;DHT22;29684;47.722;9.388;2022-09-16T06:29:36;14.80;99.90
8662;DHT22;29684;47.722;9.388;2022-09-16T06:32:20;14.80;99.90
8662;DHT22;29684;47.722;9.388;2022-09-16T06:35:04;14.60;99.90
8662;DHT22;29684;47.722;9.388;2022-09-16T06:37:49;14.70;99.90
8662;DHT22;29684;47.722;9.388;2022-09-16T06:40:33;14.80;99.90
8662;DHT22;29684;47.722;9.388;2022-09-16T06:43:17;14.70;99.90
8662;DHT22;29684;47.722;9.388;2022-09-16T06:46:04;14.60;99.90
8662;DHT22;29684;47.722;9.388;2022-09-16T06:48:51;14.70;99.90
8662;DHT22;29684;47.722;9.388;2022-09-16T06:51:35;14.70;99.90
8662;DHT22;29684;47.722;9.388;2022-09-16T06:54:19;14.80;99.90
8662;DHT22;29684;47.722;9.388;2022-09-16T06:57:04;14.60;99.90
8662;DHT22;29684;47.722;9.388;2022-09-16T06:59:49;14.60;99.90
8662;DHT22;29684;47.722;9.388;2022-09-16T07:02:34;14.50;99.90
8662;DHT22;29684;47.722;9.388;2022-09-16T07:05:19;14.50;99.90
8662;DHT22;29684;47.722;9.388;2022-09-16T07:08:03;14.50;99.90
8662;DHT22;29684;47.722;9.388;2022-09-16T07:10:58;14.40;99.90
8662;DHT22;29684;47.722;9.388;2022-09-16T07:13:43;14.40;99.90
8662;DHT22;29684;47.722;9.388;2022-09-16T07:16:28;14.30;99.90
8662;DHT22;29684;47.722;9.388;2022-09-16T07:19:12;14.30;99.90
8662;DHT22;29684;47.722;9.388;2022-09-16T07:21:56;14.20;99.90
8662;DHT22;29684;47.722;9.388;2022-09-16T07:24:40;14.10;99.90
8662;DHT22;29684;47.722;9.388;2022-09-16T07:27:24;14.10;99.90
8662;DHT22;29684;47.722;9.388;2022-09-16T07:30:09;14.00;99.90
8662;DHT22;29684;47.722;9.388;2022-09-16T07:32:53;14.00;99.90
8662;DHT22;29684;47.722;9.388;2022-09-16T07:35:37;14.00;99.90
8662;DHT22;29684;47.722;9.388;2022-09-16T07:38:21;14.00;99.90
8662;DHT22;29684;47.722;9.388;2022-09-16T07:41:07;14.10;99.90
8662;DHT22;29684;47.722;9.388;2022-09-16T07:43:56;14.10;99.90
8662;DHT22;29684;47.722;9.388;2022-09-16T07:46:42;14.10;99.90
8662;DHT22;29684;47.722;9.388;2022-09-16T07:49:26;14.10;99.90
8662;DHT22;29684;47.722;9.388;2022-09-16T07:52:10;14.20;99.90
8662;DHT22;29684;47.722;9.388;2022-09-16T07:54:55;14.30;99.90
8662;DHT22;29684;47.722;9.388;2022-09-16T07:57:39;14.20;99.90
8662;DHT22;29684;47.722;9.388;2022-09-16T08:00:23;14.30;99.90
8662;DHT22;29684;47.722;9.388;2022-09-16T08:03:09;14.40;99.90
8662;DHT22;29684;47.722;9.388;2022-09-16T08:05:59;14.50;99.90
8662;DHT22;29684;47.722;9.388;2022-09-16T08:08:44;14.40;99.90
8662;DHT22;29684;47.722;9.388;2022-09-16T08:11:29;14.60;99.90
8662;DHT22;29684;47.722;9.388;2022-09-16T08:14:13;14.70;99.90
8662;DHT22;29684;47.722;9.388;2022-09-16T08:16:58;14.90;99.90
8662;DHT22;29684;47.722;9.388;2022-09-16T08:19:42;14.90;99.90
8662;DHT22;29684;47.722;9.388;2022-09-16T08:22:26;14.90;99.90
8662;DHT22;29684;47.722;9.388;2022-09-16T08:25:10;14.90;99.90
8662;DHT22;29684;47.722;9.388;2022-09-16T08:27:54;14.80;99.90
8662;DHT22;29684;47.722;9.388;2022-09-16T08:30:38;14.90;99.90
8662;DHT22;29684;47.722;9.388;2022-09-16T08:33:23;15.00;99.90
8662;DHT22;29684;47.722;9.388;2022-09-16T08:36:15;15.00;99.90
8662;DHT22;29684;47.722;9.388;2022-09-16T08:39:00;15.20;99.90
8662;DHT22;29684;47.722;9.388;2022-09-16T08:48:41;15.80;99.90
8662;DHT22;29684;47.722;9.388;2022-09-16T08:51:29;16.00;99.90
8662;DHT22;29684;47.722;9.388;2022-09-16T08:54:37;16.00;99.90
8662;DHT22;29684;47.722;9.388;2022-09-16T08:57:27;16.20;99.90
8662;DHT22;29684;47.722;9.388;2022-09-16T09:00:13;16.40;99.90
8662;DHT22;29684;47.722;9.388;2022-09-16T09:05:56;16.40;99.90
8662;DHT22;29684;47.722;9.388;2022-09-16T09:08:52;16.50;99.90
8662;DHT22;29684;47.722;9.388;2022-09-16T09:11:46;16.70;99.90
8662;DHT22;29684;47.722;9.388;2022-09-16T09:23:43;16.70;99.90
8662;DHT22;29684;47.722;9.388;2022-09-16T09:26:45;17.00;99.90
8662;DHT22;29684;47.722;9.388;2022-09-16T09:29:38;17.40;99.90
8662;DHT22;29684;47.722;9.388;2022-09-16T09:41:23;17.40;99.90
8662;DHT22;29684;47.722;9.388;2022-09-16T09:50:23;17.80;99.90
8662;DHT22;29684;47.722;9.388;2022-09-16T09:53:30;17.90;99.90
8662;DHT22;29684;47.722;9.388;2022-09-16T09:56:30;17.80;99.90
8662;DHT22;29684;47.722;9.388;2022-09-16T09:59:28;17.60;99.90
8662;DHT22;29684;47.722;9.388;2022-09-16T10:02:19;17.70;99.90
8662;DHT22;29684;47.722;9.388;2022-09-16T10:05:04;17.90;99.90
8662;DHT22;29684;47.722;9.388;2022-09-16T10:07:52;17.80;99.90
8662;DHT22;29684;47.722;9.388;2022-09-16T10:10:45;17.50;99.90
8662;DHT22;29684;47.722;9.388;2022-09-16T10:13:30;17.50;99.90
8662;DHT22;29684;47.722;9.388;2022-09-16T10:16:17;17.40;99.90
8662;DHT22;29684;47.722;9.388;2022-09-16T10:21:52;17.30;99.90
8662;DHT22;29684;47.722;9.388;2022-09-16T10:24:41;17.40;99.90
8662;DHT22;29684;47.722;9.388;2022-09-16T10:30:16;17.90;99.90
8662;DHT22;29684;47.722;9.388;2022-09-16T10:33:02;18.30;99.90
8662;DHT22;29684;47.722;9.388;2022-09-16T10:35:55;18.40;99.90
8662;DHT22;29684;47.722;9.388;2022-09-16T10:38:43;18.20;99.90
8662;DHT22;29684;47.722;9.388;2022-09-16T10:41:33;17.80;99.90
8662;DHT22;29684;47.722;9.388;2022-09-16T10:44:29;16.70;99.90
8662;DHT22;29684;47.722;9.388;2022-09-16T10:47:23;15.70;99.90
8662;DHT22;29684;47.722;9.388;2022-09-16T10:50:16;15.10;99.90
8662;DHT22;29684;47.722;9.388;2022-09-16T10:53:01;14.70;99.90
8662;DHT22;29684;47.722;9.388;2022-09-16T10:55:56;14.60;99.90
8662;DHT22;29684;47.722;9.388;2022-09-16T10:58:41;14.80;99.90
8662;DHT22;29684;47.722;9.388;2022-09-16T11:05:05;15.10;99.90
8662;DHT22;29684;47.722;9.388;2022-09-16T11:10:58;15.00;99.90
8662;DHT22;29684;47.722;9.388;2022-09-16T11:17:14;15.10;99.90
8662;DHT22;29684;47.722;9.388;2022-09-16T11:26:27;14.80;99.90
8662;DHT22;29684;47.722;9.388;2022-09-16T11:32:22;14.80;99.90
8662;DHT22;29684;47.722;9.388;2022-09-16T11:38:32;14.80;99.90
8662;DHT22;29684;47.722;9.388;2022-09-16T11:41:42;14.70;99.90
8662;DHT22;29684;47.722;9.388;2022-09-16T11:59:31;14.40;99.90
8662;DHT22;29684;47.722;9.388;2022-09-16T12:02:23;14.40;99.90
8662;DHT22;29684;47.722;9.388;2022-09-16T12:05:33;14.20;99.90
8662;DHT22;29684;47.722;9.388;2022-09-16T12:09:39;14.10;99.90
8662;DHT22;29684;47.722;9.388;2022-09-16T12:11:55;14.00;99.90
8662;DHT22;29684;47.722;9.388;2022-09-16T12:14:52;13.90;99.90
8662;DHT22;29684;47.722;9.388;2022-09-16T12:17:39;13.80;99.90
8662;DHT22;29684;47.722;9.388;2022-09-16T12:20:32;13.70;99.90
8662;DHT22;29684;47.722;9.388;2022-09-16T12:23:25;13.60;99.90
8662;DHT22;29684;47.722;9.388;2022-09-16T12:26:24;13.50;99.90
8662;DHT22;29684;47.722;9.388;2022-09-16T12:29:33;13.50;99.90
8662;DHT22;29684;47.722;9.388;2022-09-16T12:32:51;13.60;99.90
8662;DHT22;29684;47.722;9.388;2022-09-16T12:35:41;13.80;99.90
8662;DHT22;29684;47.722;9.388;2022-09-16T12:38:27;13.90;99.90
8662;DHT22;29684;47.722;9.388;2022-09-16T12:42:15;13.90;99.90
8662;DHT22;29684;47.722;9.388;2022-09-16T12:51:20;13.90;99.90
8662;DHT22;29684;47.722;9.388;2022-09-16T12:57:18;13.90;99.90
8662;DHT22;29684;47.722;9.388;2022-09-16T13:03:15;13.90;99.90
8662;DHT22;29684;47.722;9.388;2022-09-16T13:06:06;13.80;99.90
8662;DHT22;29684;47.722;9.388;2022-09-16T13:12:21;13.90;99.90
8662;DHT22;29684;47.722;9.388;2022-09-16T13:15:08;13.90;99.90
8662;DHT22;29684;47.722;9.388;2022-09-16T13:18:08;14.00;99.90
8662;DHT22;29684;47.722;9.388;2022-09-16T13:21:05;14.00;99.90
8662;DHT22;29684;47.722;9.388;2022-09-16T13:23:59;14.20;99.90
8662;DHT22;29684;47.722;9.388;2022-09-16T13:26:44;14.10;99.90
8662;DHT22;29684;47.722;9.388;2022-09-16T13:29:41;14.10;99.90
8662;DHT22;29684;47.722;9.388;2022-09-16T13:32:41;14.20;99.90
8662;DHT22;29684;47.722;9.388;2022-09-16T13:35:43;14.20;99.90
8662;DHT22;29684;47.722;9.388;2022-09-16T13:38:38;14.10;99.90
8662;DHT22;29684;47.722;9.388;2022-09-16T13:47:30;14.20;99.90
8662;DHT22;29684;47.722;9.388;2022-09-16T13:50:20;14.20;99.90
8662;DHT22;29684;47.722;9.388;2022-09-16T13:53:10;14.30;99.90
8662;DHT22;29684;47.722;9.388;2022-09-16T13:56:36;14.60;99.90
8662;DHT22;29684;47.722;9.388;2022-09-16T13:59:47;14.60;99.90
8662;DHT22;29684;47.722;9.388;2022-09-16T14:14:32;15.50;99.90
8662;DHT22;29684;47.722;9.388;2022-09-16T14:17:26;15.40;99.90
8662;DHT22;29684;47.722;9.388;2022-09-16T14:20:16;15.30;99.90
8662;DHT22;29684;47.722;9.388;2022-09-16T14:23:18;15.40;99.90
8662;DHT22;29684;47.722;9.388;2022-09-16T14:26:15;15.40;99.90
8662;DHT22;29684;47.722;9.388;2022-09-16T14:29:03;15.30;99.90
8662;DHT22;29684;47.722;9.388;2022-09-16T14:31:50;15.10;99.90
8662;DHT22;29684;47.722;9.388;2022-09-16T14:34:36;14.90;99.90
8662;DHT22;29684;47.722;9.388;2022-09-16T14:37:27;14.80;99.90
8662;DHT22;29684;47.722;9.388;2022-09-16T14:40:14;14.80;99.90
8662;DHT22;29684;47.722;9.388;2022-09-16T14:43:08;14.70;99.90
8662;DHT22;29684;47.722;9.388;2022-09-16T14:45:57;14.60;99.90
8662;DHT22;29684;47.722;9.388;2022-09-16T14:48:44;14.60;99.90
8662;DHT22;29684;47.722;9.388;2022-09-16T14:51:29;14.50;99.90
8662;DHT22;29684;47.722;9.388;2022-09-16T14:54:18;14.50;99.90
8662;DHT22;29684;47.722;9.388;2022-09-16T14:57:14;14.40;99.90
8662;DHT22;29684;47.722;9.388;2022-09-16T15:00:02;14.40;99.90
8662;DHT22;29684;47.722;9.388;2022-09-16T15:05:41;14.60;99.90
8662;DHT22;29684;47.722;9.388;2022-09-16T15:08:28;14.70;99.90
8662;DHT22;29684;47.722;9.388;2022-09-16T15:11:18;15.10;99.90
8662;DHT22;29684;47.722;9.388;2022-09-16T15:14:07;15.50;99.90
8662;DHT22;29684;47.722;9.388;2022-09-16T15:17:01;15.60;99.90
8662;DHT22;29684;47.722;9.388;2022-09-16T15:19:50;15.50;99.90
8662;DHT22;29684;47.722;9.388;2022-09-16T15:22:38;15.30;99.90
8662;DHT22;29684;47.722;9.388;2022-09-16T15:25:29;15.30;99.90
8662;DHT22;29684;47.722;9.388;2022-09-16T15:28:18;15.40;99.90
8662;DHT22;29684;47.722;9.388;2022-09-16T15:31:02;15.20;99.90
8662;DHT22;29684;47.722;9.388;2022-09-16T15:33:51;14.80;99.90
8662;DHT22;29684;47.722;9.388;2022-09-16T15:36:38;14.60;99.90
8662;DHT22;29684;47.722;9.388;2022-09-16T15:42:21;14.40;99.90
8662;DHT22;29684;47.722;9.388;2022-09-16T15:45:17;14.30;99.90
8662;DHT22;29684;47.722;9.388;2022-09-16T15:48:14;14.40;99.90
8662;DHT22;29684;47.722;9.388;2022-09-16T15:51:06;14.30;99.90
8662;DHT22;29684;47.722;9.388;2022-09-16T15:53:53;14.30;99.90
8662;DHT22;29684;47.722;9.388;2022-09-16T15:56:39;14.20;99.90
8662;DHT22;29684;47.722;9.388;2022-09-16T15:59:38;14.30;99.90
8662;DHT22;29684;47.722;9.388;2022-09-16T16:05:29;14.20;99.90
8662;DHT22;29684;47.722;9.388;2022-09-16T16:08:50;14.20;99.90
8662;DHT22;29684;47.722;9.388;2022-09-16T16:11:34;14.20;99.90
8662;DHT22;29684;47.722;9.388;2022-09-16T16:14:19;14.30;99.90
8662;DHT22;29684;47.722;9.388;2022-09-16T16:17:15;14.10;99.90
8662;DHT22;29684;47.722;9.388;2022-09-16T16:20:00;14.10;99.90
8662;DHT22;29684;47.722;9.388;2022-09-16T16:22:45;14.00;99.90
8662;DHT22;29684;47.722;9.388;2022-09-16T16:25:29;14.10;99.90
8662;DHT22;29684;47.722;9.388;2022-09-16T16:28:14;14.10;99.90
8662;DHT22;29684;47.722;9.388;2022-09-16T16:31:14;13.90;99.90
8662;DHT22;29684;47.722;9.388;2022-09-16T16:33:58;13.90;99.90
8662;DHT22;29684;47.722;9.388;2022-09-16T16:36:42;14.00;99.90
8662;DHT22;29684;47.722;9.388;2022-09-16T16:39:27;13.80;99.90
8662;DHT22;29684;47.722;9.388;2022-09-16T16:42:12;13.70;99.90
8662;DHT22;29684;47.722;9.388;2022-09-16T16:44:57;13.60;99.90
8662;DHT22;29684;47.722;9.388;2022-09-16T16:47:43;13.60;99.90
8662;DHT22;29684;47.722;9.388;2022-09-16T16:50:27;13.60;99.90
8662;DHT22;29684;47.722;9.388;2022-09-16T16:53:11;13.50;99.90
8662;DHT22;29684;47.722;9.388;2022-09-16T16:56:10;13.50;99.90
8662;DHT22;29684;47.722;9.388;2022-09-16T16:58:54;13.70;99.90
8662;DHT22;29684;47.722;9.388;2022-09-16T17:01:39;13.60;99.90
8662;DHT22;29684;47.722;9.388;2022-09-16T17:04:25;13.60;99.90
8662;DHT22;29684;47.722;9.388;2022-09-16T17:07:09;13.50;99.90
8662;DHT22;29684;47.722;9.388;2022-09-16T17:09:54;13.50;99.90
8662;DHT22;29684;47.722;9.388;2022-09-16T17:12:40;13.50;99.90
8662;DHT22;29684;47.722;9.388;2022-09-16T17:15:24;13.40;99.90
8662;DHT22;29684;47.722;9.388;2022-09-16T17:18:09;13.40;99.90
8662;DHT22;29684;47.722;9.388;2022-09-16T17:20:53;13.20;99.90
8662;DHT22;29684;47.722;9.388;2022-09-16T17:23:37;13.20;99.90
8662;DHT22;29684;47.722;9.388;2022-09-16T17:26:23;13.10;99.90
8662;DHT22;29684;47.722;9.388;2022-09-16T17:29:07;13.00;99.90
8662;DHT22;29684;47.722;9.388;2022-09-16T17:31:52;13.00;99.90
8662;DHT22;29684;47.722;9.388;2022-09-16T17:34:36;13.10;99.90
8662;DHT22;29684;47.722;9.388;2022-09-16T17:37:21;13.10;99.90
8662;DHT22;29684;47.722;9.388;2022-09-16T17:40:05;13.00;99.90
8662;DHT22;29684;47.722;9.388;2022-09-16T17:42:50;12.90;99.90
8662;DHT22;29684;47.722;9.388;2022-09-16T17:45:35;12.90;99.90
8662;DHT22;29684;47.722;9.388;2022-09-16T17:48:20;12.90;99.90
8662;DHT22;29684;47.722;9.388;2022-09-16T17:51:05;12.90;99.90
8662;DHT22;29684;47.722;9.388;2022-09-16T17:53:49;12.90;99.90
8662;DHT22;29684;47.722;9.388;2022-09-16T17:56:33;12.90;99.90
8662;DHT22;29684;47.722;9.388;2022-09-16T17:59:18;12.90;99.90
8662;DHT22;29684;47.722;9.388;2022-09-16T18:02:03;12.80;99.90
8662;DHT22;29684;47.722;9.388;2022-09-16T18:04:47;12.80;99.90
8662;DHT22;29684;47.722;9.388;2022-09-16T18:07:32;12.70;99.90
8662;DHT22;29684;47.722;9.388;2022-09-16T18:10:16;12.70;99.90
8662;DHT22;29684;47.722;9.388;2022-09-16T18:13:00;12.70;99.90
8662;DHT22;29684;47.722;9.388;2022-09-16T18:15:45;13.00;99.90
8662;DHT22;29684;47.722;9.388;2022-09-16T18:18:29;13.00;99.90
8662;DHT22;29684;47.722;9.388;2022-09-16T18:21:15;13.20;99.90
8662;DHT22;29684;47.722;9.388;2022-09-16T18:24:02;13.00;99.90
8662;DHT22;29684;47.722;9.388;2022-09-16T18:26:46;12.80;99.90
8662;DHT22;29684;47.722;9.388;2022-09-16T18:29:31;12.80;99.90
8662;DHT22;29684;47.722;9.388;2022-09-16T18:32:16;13.00;99.90
8662;DHT22;29684;47.722;9.388;2022-09-16T18:35:00;13.10;99.90
8662;DHT22;29684;47.722;9.388;2022-09-16T18:37:44;13.10;99.90
8662;DHT22;29684;47.722;9.388;2022-09-16T18:40:29;13.00;99.90
8662;DHT22;29684;47.722;9.388;2022-09-16T18:43:13;12.90;99.90
8662;DHT22;29684;47.722;9.388;2022-09-16T18:46:16;12.60;99.90
8662;DHT22;29684;47.722;9.388;2022-09-16T18:49:01;12.50;99.90
8662;DHT22;29684;47.722;9.388;2022-09-16T18:51:50;13.10;99.90
8662;DHT22;29684;47.722;9.388;2022-09-16T18:54:35;12.80;99.90
8662;DHT22;29684;47.722;9.388;2022-09-16T18:57:19;13.00;99.90
8662;DHT22;29684;47.722;9.388;2022-09-16T19:00:07;13.10;99.90
8662;DHT22;29684;47.722;9.388;2022-09-16T19:02:51;13.00;99.90
8662;DHT22;29684;47.722;9.388;2022-09-16T19:05:36;13.00;99.90
8662;DHT22;29684;47.722;9.388;2022-09-16T19:08:20;12.80;99.90
8662;DHT22;29684;47.722;9.388;2022-09-16T19:11:04;12.80;99.90
8662;DHT22;29684;47.722;9.388;2022-09-16T19:13:49;12.80;99.90
8662;DHT22;29684;47.722;9.388;2022-09-16T19:16:35;13.00;99.90
8662;DHT22;29684;47.722;9.388;2022-09-16T19:19:20;12.90;99.90
8662;DHT22;29684;47.722;9.388;2022-09-16T19:22:04;12.50;99.90
8662;DHT22;29684;47.722;9.388;2022-09-16T19:24:49;12.70;99.90
8662;DHT22;29684;47.722;9.388;2022-09-16T19:27:37;12.50;99.90
8662;DHT22;29684;47.722;9.388;2022-09-16T19:30:22;12.30;99.90
8662;DHT22;29684;47.722;9.388;2022-09-16T19:33:09;12.20;99.90
8662;DHT22;29684;47.722;9.388;2022-09-16T19:35:54;12.40;99.90
8662;DHT22;29684;47.722;9.388;2022-09-16T19:38:38;12.40;99.90
8662;DHT22;29684;47.722;9.388;2022-09-16T19:41:25;12.30;99.90
8662;DHT22;29684;47.722;9.388;2022-09-16T19:44:12;12.20;99.90
8662;DHT22;29684;47.722;9.388;2022-09-16T19:46:57;12.20;99.90
8662;DHT22;29684;47.722;9.388;2022-09-16T19:49:42;12.50;99.90
8662;DHT22;29684;47.722;9.388;2022-09-16T19:52:26;12.50;99.90
8662;DHT22;29684;47.722;9.388;2022-09-16T19:55:11;12.40;99.90
8662;DHT22;29684;47.722;9.388;2022-09-16T19:57:55;12.30;99.90
8662;DHT22;29684;47.722;9.388;2022-09-16T20:00:39;12.20;99.90
8662;DHT22;29684;47.722;9.388;2022-09-16T20:03:23;12.30;99.90
8662;DHT22;29684;47.722;9.388;2022-09-16T20:06:19;12.40;99.90
8662;DHT22;29684;47.722;9.388;2022-09-16T20:09:09;12.50;99.90
8662;DHT22;29684;47.722;9.388;2022-09-16T20:11:56;12.70;99.90
8662;DHT22;29684;47.722;9.388;2022-09-16T20:14:41;12.70;99.90
8662;DHT22;29684;47.722;9.388;2022-09-16T20:17:26;12.50;99.90
8662;DHT22;29684;47.722;9.388;2022-09-16T20:20:10;12.50;99.90
8662;DHT22;29684;47.722;9.388;2022-09-16T20:22:54;12.50;99.90
8662;DHT22;29684;47.722;9.388;2022-09-16T20:25:38;12.40;99.90
8662;DHT22;29684;47.722;9.388;2022-09-16T20:28:27;12.30;99.90
8662;DHT22;29684;47.722;9.388;2022-09-16T20:31:12;12.20;99.90
8662;DHT22;29684;47.722;9.388;2022-09-16T20:33:57;12.30;99.90
8662;DHT22;29684;47.722;9.388;2022-09-16T20:36:43;12.60;99.90
8662;DHT22;29684;47.722;9.388;2022-09-16T20:39:28;12.50;99.90
8662;DHT22;29684;47.722;9.388;2022-09-16T20:42:13;12.50;99.90
8662;DHT22;29684;47.722;9.388;2022-09-16T20:44:57;12.30;99.90
8662;DHT22;29684;47.722;9.388;2022-09-16T20:47:41;12.20;99.90
8662;DHT22;29684;47.722;9.388;2022-09-16T20:50:25;12.10;99.90